Flight Track Log - Related Links

Times and Time Zones

All times are in EDT time to prevent confusion due to time zone crossing. See the GUJ371 flight status page for this flight to view local times or setup timezone preferences in your user account.

Time Position Orientation Groundspeed Altitude Reporting Facility
EDT Latitude Longitude Course Direction KTS km/h feet Rate Location/Type
Tue 20:47:32 18.1732 73.6461 141° Southeast  Level Estimated
Tue 20:48:32 18.1000 73.7078 141° Southeast  Level Estimated
Tue 20:49:32 18.0268 73.7695 141° Southeast  Level Estimated
Tue 20:50:32 17.9536 73.8311 141° Southeast  Level Estimated
Tue 20:51:32 17.8803 73.8927 141° Southeast  Level Estimated
Tue 20:52:32 17.8071 73.9543 141° Southeast  Level Estimated
Tue 20:53:32 17.7338 74.0157 141° Southeast  Level Estimated
Tue 20:54:32 17.6605 74.0772 141° Southeast  Level Estimated
Tue 20:55:32 17.5872 74.1385 141° Southeast  Level Estimated
Tue 20:56:32 17.5138 74.1999 141° Southeast  Level Estimated
Tue 20:57:32 17.4405 74.2612 141° Southeast  Level Estimated
Tue 20:58:32 17.3671 74.3224 141° Southeast  Level Estimated
Tue 20:59:32 17.2937 74.3836 141° Southeast  Level Estimated
Tue 21:00:32 17.2203 74.4447 142° Southeast  Level Estimated
Tue 21:01:32 17.1469 74.5058 142° Southeast  Level Estimated
Tue 21:02:32 17.0734 74.5668 142° Southeast  Level Estimated
Tue 21:03:32 17.0000 74.6278 142° Southeast  Level Estimated
Tue 21:04:32 16.9265 74.6887 142° Southeast  Level Estimated
Tue 21:05:32 16.8530 74.7496 142° Southeast  Level Estimated
Tue 21:06:32 16.7794 74.8105 142° Southeast  Level Estimated
Tue 21:07:32 16.7059 74.8713 142° Southeast  Level Estimated
Tue 21:08:32 16.6324 74.9320 142° Southeast  Level Estimated
Tue 21:09:32 16.5588 74.9927 142° Southeast  Level Estimated
Tue 21:10:32 16.4852 75.0534 142° Southeast  Level Estimated
Tue 21:11:32 16.4116 75.1140 142° Southeast  Level Estimated
Tue 21:12:32 16.3379 75.1746 142° Southeast  Level Estimated
Tue 21:13:32 16.2643 75.2351 142° Southeast  Level Estimated
Tue 21:14:32 16.1907 75.2955 142° Southeast  Level Estimated
Tue 21:15:32 16.1170 75.3560 142° Southeast  Level Estimated
Tue 21:16:32 16.0433 75.4164 142° Southeast  Level Estimated
Tue 21:17:32 15.9696 75.4767 142° Southeast  Level Estimated
Tue 21:18:32 15.8958 75.5370 142° Southeast  Level Estimated
Tue 21:19:32 15.8221 75.5972 142° Southeast  Level Estimated
Tue 21:20:32 15.7483 75.6574 142° Southeast  Level Estimated
Tue 21:21:32 15.6746 75.7176 142° Southeast  Level Estimated
Tue 21:22:32 15.6008 75.7777 142° Southeast  Level Estimated
Tue 21:23:32 15.5269 75.8378 142° Southeast  Level Estimated
Tue 21:24:32 15.4531 75.8978 142° Southeast  Level Estimated
Tue 21:25:32 15.3793 75.9578 142° Southeast  Level Estimated
Tue 21:26:32 15.3054 76.0178 142° Southeast  Level Estimated
Tue 21:27:32 15.2315 76.0777 142° Southeast  Level Estimated
Tue 21:28:32 15.1576 76.1375 142° Southeast  Level Estimated
Tue 21:29:32 15.0837 76.1973 142° Southeast  Level Estimated
Tue 21:30:32 15.0098 76.2571 142° Southeast  Level Estimated
Tue 21:31:32 14.9359 76.3169 142° Southeast  Level Estimated
Tue 21:32:32 14.8619 76.3766 142° Southeast  Level Estimated
Tue 21:33:32 14.7880 76.4362 142° Southeast  Level Estimated
Tue 21:34:32 14.7140 76.4958 142° Southeast  Level Estimated
Tue 21:35:32 14.6400 76.5554 142° Southeast  Level Estimated
Tue 21:36:32 14.5660 76.6150 142° Southeast  Level Estimated
Tue 21:37:32 14.4919 76.6745 142° Southeast  Level Estimated
Tue 21:38:32 14.4179 76.7339 142° Southeast  Level Estimated
Tue 21:39:32 14.3438 76.7933 142° Southeast  Level Estimated
Tue 21:40:32 14.2697 76.8527 142° Southeast  Level Estimated
Tue 21:41:32 14.1957 76.9120 142° Southeast  Level Estimated
Tue 21:42:32 14.1215 76.9713 142° Southeast  Level Estimated
Tue 21:43:32 14.0474 77.0306 142° Southeast  Level Estimated
Tue 21:44:32 13.9733 77.0898 142° Southeast  Level Estimated
Tue 21:45:32 13.8991 77.1490 142° Southeast  Level Estimated
Tue 21:46:32 13.8250 77.2082 142° Southeast  Level Estimated
Tue 21:47:32 13.7508 77.2673 142° Southeast  Level Estimated
Tue 21:48:32 13.6766 77.3263 142° Southeast  Level Estimated
Tue 21:49:32 13.6024 77.3854 142° Southeast  Level Estimated
Tue 21:50:32 13.5282 77.4444 142° Southeast  Level Estimated
Tue 21:51:32 13.4540 77.5033 142° Southeast  Level Estimated
Tue 21:52:32 13.3797 77.5622 142° Southeast  Level Estimated
Tue 21:53:32 13.3055 77.6211 142° Southeast  Level Estimated
Tue 21:54:32 13.2312 77.6800 142° Southeast  Level Estimated
Tue 21:55:32 13.1569 77.7388 322° Northwest  Level Estimated
Tue 21:56:32 13.2312 77.6800 142° Southeast  Level Estimated
Tue 21:57:32 13.1569 77.7388 322° Northwest  Level Estimated
Tue 21:58:32 13.2312 77.6800 142° Southeast  Level Estimated
Tue 21:59:32 13.1569 77.7388 322° Northwest  Level Estimated
Tue 22:00:32 13.2312 77.6800 142° Southeast  Level Estimated
Tue 22:01:32 13.1569 77.7388 322° Northwest  Level Estimated
Tue 22:02:32 13.2312 77.6800 142° Southeast  Level Estimated
Tue 22:03:32 13.1569 77.7388 322° Northwest  Level Estimated
Tue 22:04:32 13.2312 77.6800 142° Southeast  Level Estimated
Tue 22:05:32 13.1569 77.7388 322° Northwest  Level Estimated
Tue 22:06:32 13.2312 77.6800 142° Southeast  Level Estimated
Tue 22:07:32 13.1569 77.7388 322° Northwest  Level Estimated
Tue 22:08:32 13.2312 77.6800 142° Southeast  Level Estimated
Tue 22:09:32 13.1569 77.7388 322° Northwest  Level Estimated
Tue 22:10:32 13.2312 77.6800 322° Northwest  Level Estimated

Login

Don't have an account? Register now (free) for customized features, flight alerts, and more!